createdAt,value
2018-02-22T00:02:24.339Z,69.50
2018-02-22T00:04:50.118Z,69.27
2018-02-22T00:07:15.930Z,79.47
2018-02-22T00:09:41.698Z,76.47
2018-02-22T00:12:07.470Z,77.20
2018-02-22T00:14:33.270Z,71.87
2018-02-22T00:16:59.043Z,66.43
2018-02-22T00:19:24.817Z,74.50
2018-02-22T00:21:50.596Z,75.20
2018-02-22T00:24:16.371Z,74.80
2018-02-22T00:26:42.183Z,77.50
2018-02-22T00:29:07.958Z,90.40
2018-02-22T00:31:33.778Z,76.90
2018-02-22T00:33:59.594Z,79.60
2018-02-22T00:36:25.378Z,82.10
2018-02-22T00:38:51.157Z,81.20
2018-02-22T00:41:16.947Z,73.00
2018-02-22T00:43:42.711Z,78.63
2018-02-22T00:46:08.494Z,78.17
2018-02-22T00:48:34.304Z,81.60
2018-02-22T00:51:00.070Z,74.03
2018-02-22T00:53:25.869Z,84.03
2018-02-22T00:55:51.930Z,82.10
2018-02-22T00:58:17.703Z,75.97
2018-02-22T01:00:43.479Z,78.43
2018-02-22T01:03:09.276Z,73.67
2018-02-22T01:05:35.055Z,70.67
2018-02-22T01:08:00.827Z,80.43
2018-02-22T01:10:26.610Z,76.33
2018-02-22T01:12:52.378Z,72.10
2018-02-22T01:15:18.166Z,80.10
2018-02-22T01:17:43.944Z,71.67
2018-02-22T01:20:09.731Z,82.40
2018-02-22T01:22:35.518Z,68.20
2018-02-22T01:25:01.297Z,71.67
2018-02-22T01:27:27.070Z,69.50
2018-02-22T01:29:52.869Z,75.40
2018-02-22T01:32:18.712Z,69.17
2018-02-22T01:34:44.485Z,70.17
2018-02-22T01:37:10.282Z,70.37
2018-02-22T01:39:36.050Z,75.63
2018-02-22T01:42:01.822Z,74.37
2018-02-22T01:44:27.607Z,77.97
2018-02-22T01:46:53.390Z,80.07
2018-02-22T01:49:19.486Z,82.87
2018-02-22T01:51:45.266Z,76.25
2018-02-22T01:54:11.035Z,68.13
2018-02-22T01:56:36.839Z,71.60
2018-02-22T01:59:02.623Z,72.67
2018-02-22T02:01:28.423Z,78.37
2018-02-22T02:03:54.226Z,67.83
2018-02-22T02:06:20.006Z,70.43
2018-02-22T02:08:45.832Z,75.63
2018-02-22T02:11:11.658Z,65.20
2018-02-22T02:13:37.450Z,71.53
2018-02-22T02:16:03.230Z,68.17
2018-02-22T02:18:29.011Z,75.40
2018-02-22T02:20:57.512Z,82.47
2018-02-22T02:23:23.285Z,73.65
2018-02-22T02:25:49.086Z,59.57
2018-02-22T02:28:14.878Z,71.90
2018-02-22T02:30:40.663Z,79.33
2018-02-22T02:33:06.498Z,75.53
2018-02-22T02:35:32.303Z,75.50
2018-02-22T02:37:58.090Z,73.90
2018-02-22T02:40:23.903Z,76.13
2018-02-22T02:42:49.694Z,82.00
2018-02-22T02:45:15.488Z,84.13
2018-02-22T02:47:41.293Z,76.20
2018-02-22T02:50:07.083Z,74.40
2018-02-22T02:52:32.891Z,76.53
2018-02-22T02:54:58.698Z,69.80
2018-02-22T02:57:24.486Z,73.13
2018-02-22T02:59:50.303Z,75.57
2018-02-22T03:02:16.695Z,71.30
2018-02-22T03:04:42.480Z,70.50
2018-02-22T03:07:08.286Z,69.03
2018-02-22T03:09:34.077Z,72.43
2018-02-22T03:11:59.862Z,74.50
2018-02-22T03:14:25.671Z,73.47
2018-02-22T03:16:51.456Z,71.80
2018-02-22T03:19:17.248Z,76.67
2018-02-22T03:21:43.348Z,82.27
2018-02-22T03:24:09.122Z,69.85
2018-02-22T03:26:34.894Z,83.97
2018-02-22T03:29:00.692Z,65.67
2018-02-22T03:31:26.469Z,73.20
2018-02-22T03:33:52.243Z,71.27
2018-02-22T03:36:18.074Z,64.60
2018-02-22T03:38:43.864Z,76.87
2018-02-22T03:41:09.654Z,73.47
2018-02-22T03:43:35.470Z,76.50
2018-02-22T03:46:01.317Z,75.77
2018-02-22T03:48:27.050Z,70.53
2018-02-22T03:50:52.854Z,69.57
2018-02-22T03:53:18.639Z,71.20
2018-02-22T03:55:44.419Z,75.20
2018-02-22T03:58:10.223Z,79.47
2018-02-22T04:00:36.008Z,77.00
2018-02-22T04:03:01.935Z,68.80
2018-02-22T04:05:27.750Z,80.37
2018-02-22T04:07:53.539Z,69.87
2018-02-22T04:10:19.322Z,74.30
2018-02-22T04:12:45.379Z,70.37
2018-02-22T04:15:11.162Z,66.10
2018-02-22T04:17:36.952Z,71.87
2018-02-22T04:20:03.774Z,77.40
2018-02-22T04:22:29.579Z,68.87
2018-02-22T04:24:55.355Z,72.53
2018-02-22T04:27:21.160Z,79.07
2018-02-22T04:29:46.934Z,69.57
2018-02-22T04:32:12.713Z,62.87
2018-02-22T04:34:38.713Z,75.83
2018-02-22T04:37:04.482Z,73.70
2018-02-22T04:39:30.265Z,70.20
2018-02-22T04:41:56.051Z,68.73
2018-02-22T04:44:21.846Z,73.53
2018-02-22T04:46:47.614Z,68.87
2018-02-22T04:49:13.422Z,68.33
2018-02-22T04:51:39.210Z,78.17
2018-02-22T04:54:04.991Z,74.80
2018-02-22T04:56:30.783Z,75.37
2018-02-22T04:58:56.558Z,75.13
2018-02-22T05:01:22.378Z,66.27
2018-02-22T05:03:48.179Z,63.60
2018-02-22T05:06:13.954Z,73.70
2018-02-22T05:08:39.726Z,72.30
2018-02-22T05:11:05.532Z,82.90
2018-02-22T05:13:31.302Z,75.80
2018-02-22T05:15:57.074Z,83.97
2018-02-22T05:18:23.238Z,78.73
2018-02-22T05:20:49.025Z,75.07
2018-02-22T05:23:14.810Z,78.17
2018-02-22T05:25:40.596Z,73.57
2018-02-22T05:28:06.375Z,76.50
2018-02-22T05:30:32.178Z,78.10
2018-02-22T05:32:57.950Z,70.80
2018-02-22T05:35:23.733Z,73.67
2018-02-22T05:37:49.530Z,77.40
2018-02-22T05:40:15.307Z,85.83
2018-02-22T05:42:41.079Z,74.70
2018-02-22T05:45:07.236Z,76.60
2018-02-22T05:47:33.024Z,66.70
2018-02-22T05:49:58.800Z,81.57
2018-02-22T05:52:24.695Z,73.43
2018-02-22T05:54:50.457Z,82.23
2018-02-22T05:57:16.234Z,76.70
2018-02-22T05:59:42.236Z,70.57
2018-02-22T06:02:08.014Z,85.03
2018-02-22T06:04:34.088Z,85.40
2018-02-22T06:07:00.218Z,78.78
2018-02-22T06:09:25.999Z,78.18
2018-02-22T06:11:51.805Z,62.17
2018-02-22T06:14:17.598Z,73.00
2018-02-22T06:16:43.375Z,65.57
2018-02-22T06:19:09.143Z,69.27
2018-02-22T06:21:34.949Z,67.97
2018-02-22T06:24:00.758Z,74.27
2018-02-22T06:26:26.543Z,64.60
2018-02-22T06:28:52.314Z,70.03
2018-02-22T06:31:18.114Z,73.90
2018-02-22T06:33:43.914Z,71.13
2018-02-22T06:36:09.703Z,77.77
2018-02-22T06:38:35.511Z,82.37
2018-02-22T06:41:01.304Z,72.90
2018-02-22T06:43:27.092Z,86.50
2018-02-22T06:45:52.915Z,77.90
2018-02-22T06:48:18.703Z,78.27
2018-02-22T06:50:44.486Z,78.10
2018-02-22T06:53:10.270Z,82.80
2018-02-22T06:55:36.054Z,77.60
2018-02-22T06:58:01.871Z,88.80
2018-02-22T07:00:27.671Z,79.37
2018-02-22T07:02:53.442Z,84.67
2018-02-22T07:05:19.245Z,84.80
2018-02-22T07:07:45.018Z,74.67
2018-02-22T07:10:10.803Z,80.43
2018-02-22T07:12:36.611Z,70.93
2018-02-22T07:15:02.422Z,84.20
2018-02-22T07:17:28.215Z,82.60
2018-02-22T07:19:54.031Z,88.57
2018-02-22T07:22:19.807Z,87.93
2018-02-22T07:24:46.000Z,86.90
2018-02-22T07:29:44.671Z,79.82
2018-02-22T07:32:10.464Z,86.47
2018-02-22T07:34:36.540Z,81.10
2018-02-22T07:37:02.367Z,72.32
2018-02-22T07:39:28.163Z,82.00
2018-02-22T07:41:54.006Z,80.87
2018-02-22T07:44:19.795Z,74.30
2018-02-22T07:46:45.588Z,81.63
2018-02-22T07:49:11.651Z,78.97
2018-02-22T07:51:37.418Z,73.03
2018-02-22T07:54:03.258Z,82.67
2018-02-22T07:56:29.307Z,81.33
2018-02-22T07:58:55.087Z,68.60
2018-02-22T08:01:20.865Z,109.60
2018-02-22T08:03:46.976Z,85.23
2018-02-22T08:06:12.769Z,75.60
2018-02-22T08:08:38.551Z,78.47
2018-02-22T08:11:04.531Z,72.63
2018-02-22T08:13:30.311Z,72.33
2018-02-22T08:15:56.086Z,85.70
2018-02-22T08:18:21.882Z,80.70
2018-02-22T08:20:47.678Z,87.40
2018-02-22T08:23:13.474Z,64.67
2018-02-22T08:25:39.270Z,61.37
2018-02-22T08:28:05.050Z,67.13
2018-02-22T08:30:30.978Z,66.70
2018-02-22T08:32:56.775Z,67.30
2018-02-22T08:35:22.571Z,68.47
2018-02-22T08:37:48.375Z,63.67
2018-02-22T08:40:14.153Z,62.67
2018-02-22T08:42:40.031Z,65.57
2018-02-22T08:45:05.842Z,56.93
2018-02-22T08:47:31.621Z,64.27
2018-02-22T08:49:57.431Z,65.37
2018-02-22T08:52:23.218Z,58.27
2018-02-22T08:54:49.010Z,54.93
2018-02-22T08:57:14.798Z,59.43
2018-02-22T08:59:40.574Z,59.17
2018-02-22T09:02:06.352Z,52.50
2018-02-22T09:04:32.156Z,52.67
2018-02-22T09:06:57.942Z,59.43
2018-02-22T09:09:23.715Z,60.07
2018-02-22T09:11:49.532Z,52.73
2018-02-22T09:14:15.328Z,55.70
2018-02-22T09:16:41.123Z,59.50
2018-02-22T09:19:06.947Z,53.10
2018-02-22T09:21:32.760Z,55.23
2018-02-22T09:23:58.570Z,57.03
2018-02-22T09:26:24.930Z,54.77
2018-02-22T09:28:50.756Z,60.65
2018-02-22T09:31:16.565Z,57.37
2018-02-22T09:33:42.555Z,52.10
2018-02-22T09:36:08.355Z,56.50
2018-02-22T09:38:34.138Z,57.37
2018-02-22T09:40:59.930Z,53.60
2018-02-22T09:43:25.723Z,56.23
2018-02-22T09:45:51.543Z,56.03
2018-02-22T09:48:17.318Z,57.53
2018-02-22T09:50:43.124Z,53.40
2018-02-22T09:53:08.930Z,56.43
2018-02-22T09:55:34.700Z,51.97
2018-02-22T09:58:00.485Z,65.50
2018-02-22T10:00:26.278Z,58.43
2018-02-22T10:02:59.294Z,56.30
2018-02-22T10:05:25.100Z,58.25
2018-02-22T10:07:50.879Z,59.23
2018-02-22T10:10:16.995Z,57.40
2018-02-22T10:12:42.774Z,56.10
2018-02-22T10:15:08.570Z,54.57
2018-02-22T10:17:34.359Z,57.00
2018-02-22T10:20:00.362Z,53.90
2018-02-22T10:22:26.171Z,55.30
2018-02-22T10:24:51.946Z,56.50
2018-02-22T10:27:17.834Z,56.53
2018-02-22T10:29:43.592Z,48.77
2018-02-22T10:32:09.391Z,53.53
2018-02-22T10:34:35.588Z,50.47
2018-02-22T10:37:01.366Z,57.78
2018-02-22T10:39:27.155Z,55.73
2018-02-22T10:41:53.112Z,60.77
2018-02-22T10:44:18.915Z,53.57
2018-02-22T10:46:44.694Z,59.60
2018-02-22T10:49:10.502Z,55.63
2018-02-22T10:51:36.275Z,57.13
2018-02-22T10:54:02.082Z,53.27
2018-02-22T10:56:27.883Z,56.20
2018-02-22T10:58:53.676Z,54.87
2018-02-22T11:01:25.590Z,49.40
2018-02-22T11:03:58.343Z,49.65
2018-02-22T11:06:24.149Z,52.00
2018-02-22T11:08:49.933Z,56.70
2018-02-22T11:11:15.747Z,57.40
2018-02-22T11:13:41.515Z,48.17
2018-02-22T11:16:07.305Z,56.67
2018-02-22T11:18:33.321Z,51.87
2018-02-22T11:20:59.100Z,47.17
2018-02-22T11:23:24.887Z,48.93
2018-02-22T11:25:50.673Z,51.70
2018-02-22T11:28:16.459Z,47.33
2018-02-22T11:30:42.267Z,41.40
2018-02-22T11:33:08.056Z,46.43
2018-02-22T11:35:33.830Z,40.17
2018-02-22T11:37:59.962Z,43.37
2018-02-22T11:40:25.751Z,46.45
2018-02-22T11:42:51.538Z,60.30
2018-02-22T11:45:17.347Z,46.03
2018-02-22T11:47:43.128Z,45.73
2018-02-22T11:50:08.919Z,44.57
2018-02-22T11:52:34.714Z,42.90
2018-02-22T11:55:01.108Z,42.20
2018-02-22T11:57:28.155Z,46.13
2018-02-22T11:59:54.594Z,46.65
2018-02-22T12:02:21.638Z,46.22
2018-02-22T12:04:50.515Z,42.47
2018-02-22T12:07:17.368Z,38.75
2018-02-22T12:09:43.904Z,47.62
2018-02-22T12:12:10.233Z,46.08
2018-02-22T12:14:38.922Z,43.17
2018-02-22T12:17:05.353Z,32.58
2018-02-22T12:19:31.606Z,35.97
2018-02-22T12:21:58.524Z,34.75
2018-02-22T12:24:25.058Z,36.33
2018-02-22T12:26:51.904Z,34.92
2018-02-22T12:29:18.650Z,40.12
2018-02-22T12:31:45.384Z,43.30
2018-02-22T12:34:11.714Z,43.47
2018-02-22T12:36:37.592Z,39.15
2018-02-22T12:39:03.435Z,40.70
2018-02-22T12:41:30.402Z,45.20
2018-02-22T12:43:56.323Z,39.15
2018-02-22T12:46:22.175Z,42.40
2018-02-22T12:48:48.014Z,38.73
2018-02-22T12:51:14.084Z,35.60
2018-02-22T12:53:40.364Z,40.72
2018-02-22T12:56:06.434Z,40.10
2018-02-22T12:58:32.477Z,35.05
2018-02-22T13:00:58.431Z,41.67
2018-02-22T13:03:24.275Z,48.03
2018-02-22T13:05:50.090Z,42.87
2018-02-22T13:08:15.891Z,42.83
2018-02-22T13:10:41.681Z,44.13
2018-02-22T13:13:07.761Z,40.30
2018-02-22T13:15:33.571Z,33.35
2018-02-22T13:17:59.371Z,50.80
2018-02-22T13:20:25.234Z,36.57
2018-02-22T13:22:51.210Z,33.03
2018-02-22T13:25:17.068Z,34.05
2018-02-22T13:27:42.892Z,39.17
2018-02-22T13:30:08.705Z,33.80
2018-02-22T13:32:47.076Z,53.33
2018-02-22T13:35:13.871Z,40.35
2018-02-22T13:40:47.166Z,47.10
2018-02-22T13:43:13.098Z,43.97
2018-02-22T13:45:39.630Z,118.83
2018-02-22T13:48:05.659Z,71.53
2018-02-22T13:50:43.973Z,65.65
2018-02-22T13:53:09.847Z,48.87
2018-02-22T13:55:35.741Z,43.37
2018-02-22T13:58:01.561Z,41.80
2018-02-22T14:00:39.858Z,69.83
2018-02-22T14:03:05.680Z,45.50
2018-02-22T14:05:31.527Z,39.07
2018-02-22T14:07:57.355Z,38.37
2018-02-22T14:10:23.218Z,41.83
2018-02-22T14:12:49.113Z,41.97
2018-02-22T14:15:15.534Z,38.30
2018-02-22T14:17:41.347Z,37.25
2018-02-22T14:20:07.181Z,42.20
2018-02-22T14:22:33.024Z,41.97
2018-02-22T14:24:58.819Z,40.70
2018-02-22T14:27:24.609Z,34.73
2018-02-22T14:29:50.429Z,41.87
2018-02-22T14:32:16.207Z,34.20
2018-02-22T14:34:42.368Z,42.30
2018-02-22T14:37:08.164Z,42.65
2018-02-22T14:39:33.960Z,38.40
2018-02-22T14:41:59.846Z,40.27
2018-02-22T14:44:25.694Z,46.53
2018-02-22T14:46:51.461Z,42.87
2018-02-22T14:49:17.556Z,51.17
2018-02-22T14:51:43.351Z,42.88
2018-02-22T14:54:09.673Z,39.87
2018-02-22T14:56:35.458Z,113.12
2018-02-22T14:59:01.243Z,77.57
2018-02-22T15:01:27.114Z,54.77
2018-02-22T15:03:52.866Z,52.27
2018-02-22T15:06:18.976Z,60.97
2018-02-22T15:08:45.816Z,62.65
2018-02-22T15:11:12.556Z,52.88
2018-02-22T15:13:39.499Z,41.00
2018-02-22T15:16:05.347Z,42.67
2018-02-22T15:18:31.133Z,51.27
2018-02-22T15:20:56.915Z,62.67
2018-02-22T15:23:22.790Z,42.13
2018-02-22T15:25:48.616Z,53.87
2018-02-22T15:28:14.415Z,54.67
2018-02-22T15:30:40.207Z,50.87
2018-02-22T15:33:05.983Z,54.13
2018-02-22T15:35:32.380Z,57.80
2018-02-22T15:37:58.227Z,51.92
2018-02-22T15:40:24.022Z,54.13
2018-02-22T15:42:49.900Z,57.70
2018-02-22T15:45:15.719Z,51.73
2018-02-22T15:47:41.503Z,67.30
2018-02-22T15:50:07.299Z,62.23
2018-02-22T15:52:33.125Z,55.77
2018-02-22T15:54:58.967Z,52.07
2018-02-22T15:57:24.716Z,56.50
2018-02-22T15:59:50.542Z,54.43
2018-02-22T16:02:16.374Z,56.83
2018-02-22T16:04:49.196Z,64.30
2018-02-22T16:07:15.000Z,130.77
2018-02-22T16:09:40.778Z,86.73
2018-02-22T16:12:06.567Z,62.87
2018-02-22T16:14:32.392Z,89.57
2018-02-22T16:16:58.162Z,74.07
2018-02-22T16:19:23.942Z,69.00
2018-02-22T16:21:49.724Z,45.47
2018-02-22T16:24:15.531Z,49.77
2018-02-22T16:26:41.307Z,46.60
2018-02-22T16:29:07.132Z,46.60
2018-02-22T16:31:32.934Z,49.43
2018-02-22T16:33:58.755Z,60.33
2018-02-22T16:36:24.537Z,47.37
2018-02-22T16:38:50.318Z,51.13
2018-02-22T16:41:16.109Z,45.50
2018-02-22T16:43:41.891Z,47.97
2018-02-22T16:46:07.715Z,42.93
2018-02-22T16:48:33.515Z,59.20
2018-02-22T16:50:59.311Z,54.37
2018-02-22T16:53:25.118Z,48.57
2018-02-22T16:55:50.908Z,44.97
2018-02-22T16:58:16.722Z,49.60
2018-02-22T17:00:42.772Z,46.67
2018-02-22T17:03:15.545Z,51.78
2018-02-22T17:05:41.330Z,53.72
2018-02-22T17:08:07.136Z,55.93
2018-02-22T17:10:32.938Z,52.33
2018-02-22T17:12:59.127Z,53.20
2018-02-22T17:15:24.936Z,55.90
2018-02-22T17:17:50.716Z,55.53
2018-02-22T17:20:16.505Z,55.90
2018-02-22T17:22:42.314Z,60.03
2018-02-22T17:25:08.082Z,62.47
2018-02-22T17:27:39.775Z,56.53
2018-02-22T17:30:11.733Z,69.68
2018-02-22T17:32:37.539Z,58.80
2018-02-22T17:35:04.319Z,63.83
2018-02-22T17:37:32.095Z,55.12
2018-02-22T17:40:02.700Z,51.65
2018-02-22T17:42:39.246Z,60.38
2018-02-22T17:45:05.215Z,47.05
2018-02-22T17:47:31.026Z,49.67
2018-02-22T17:49:56.806Z,37.93
2018-02-22T17:52:22.613Z,32.77
2018-02-22T17:54:48.472Z,32.87
2018-02-22T17:57:14.299Z,32.80
2018-02-22T17:59:40.099Z,44.13
2018-02-22T18:02:05.891Z,34.07
2018-02-22T18:04:31.677Z,28.67
2018-02-22T18:06:57.502Z,29.73
2018-02-22T18:09:23.321Z,26.00
2018-02-22T18:11:49.129Z,25.47
2018-02-22T18:14:15.207Z,26.57
2018-02-22T18:16:41.052Z,23.67
2018-02-22T18:19:06.862Z,26.53
2018-02-22T18:21:32.629Z,24.30
2018-02-22T18:23:58.412Z,27.40
2018-02-22T18:26:24.203Z,27.37
2018-02-22T18:28:50.034Z,24.73
2018-02-22T18:31:15.823Z,25.23
2018-02-22T18:33:41.855Z,30.43
2018-02-22T18:36:07.664Z,34.25
2018-02-22T18:38:39.507Z,31.43
2018-02-22T18:41:05.349Z,26.62
2018-02-22T18:43:41.074Z,27.43
2018-02-22T18:46:06.858Z,26.45
2018-02-22T18:48:32.759Z,29.83
2018-02-22T18:50:58.675Z,24.40
2018-02-22T18:53:24.466Z,20.00
2018-02-22T18:55:50.604Z,21.00
2018-02-22T18:58:16.395Z,21.58
2018-02-22T19:00:42.195Z,26.20
2018-02-22T19:03:08.005Z,25.20
2018-02-22T19:05:33.800Z,21.63
2018-02-22T19:07:59.603Z,23.93
2018-02-22T19:10:25.427Z,21.13
2018-02-22T19:12:51.234Z,22.80
2018-02-22T19:15:17.036Z,17.20
2018-02-22T19:17:42.849Z,24.13
2018-02-22T19:20:08.690Z,13.90
2018-02-22T19:22:34.571Z,14.70
2018-02-22T19:25:00.351Z,15.70
2018-02-22T19:27:26.144Z,16.80
2018-02-22T19:29:51.935Z,19.60
2018-02-22T19:32:17.721Z,16.63
2018-02-22T19:34:43.597Z,13.20
2018-02-22T19:37:09.425Z,13.57
2018-02-22T19:39:35.213Z,15.50
2018-02-22T19:42:01.016Z,14.13
2018-02-22T19:44:27.069Z,15.43
2018-02-22T19:46:52.855Z,15.73
2018-02-22T19:49:18.643Z,16.13
2018-02-22T19:51:44.439Z,17.03
2018-02-22T19:54:10.227Z,16.60
2018-02-22T19:56:36.015Z,13.83
2018-02-22T19:59:01.859Z,12.77
2018-02-22T20:01:27.672Z,15.43
2018-02-22T20:03:53.459Z,18.23
2018-02-22T20:06:19.290Z,15.80
2018-02-22T20:08:45.099Z,15.47
2018-02-22T20:11:11.779Z,11.10
2018-02-22T20:13:37.965Z,11.10
2018-02-22T20:16:03.786Z,14.60
2018-02-22T20:18:29.614Z,12.90
2018-02-22T20:20:55.777Z,12.30
2018-02-22T20:23:21.559Z,17.45
2018-02-22T20:25:47.364Z,16.60
2018-02-22T20:28:13.227Z,16.40
2018-02-22T20:30:39.030Z,11.00
2018-02-22T20:33:06.827Z,13.80
2018-02-22T20:35:32.615Z,13.95
2018-02-22T20:37:58.516Z,13.30
2018-02-22T20:40:25.168Z,11.83
2018-02-22T20:42:51.980Z,12.65
2018-02-22T20:45:17.903Z,14.87
2018-02-22T20:47:43.756Z,14.80
2018-02-22T20:50:11.507Z,13.00
2018-02-22T20:52:39.138Z,12.55
2018-02-22T20:55:07.924Z,13.32
2018-02-22T20:57:33.779Z,16.25
2018-02-22T20:59:59.843Z,10.60
2018-02-22T21:02:27.236Z,13.82
2018-02-22T21:04:53.305Z,11.88
2018-02-22T21:07:19.217Z,12.20
2018-02-22T21:09:45.199Z,10.63
2018-02-22T21:12:11.940Z,10.63
2018-02-22T21:14:37.927Z,14.98
2018-02-22T21:17:03.734Z,9.37
2018-02-22T21:19:29.532Z,14.50
2018-02-22T21:21:55.431Z,12.47
2018-02-22T21:24:21.537Z,13.60
2018-02-22T21:26:47.522Z,13.23
2018-02-22T21:29:13.453Z,9.73
2018-02-22T21:31:39.453Z,12.23
2018-02-22T21:34:05.562Z,11.12
2018-02-22T21:36:31.555Z,9.20
2018-02-22T21:38:57.570Z,13.63
2018-02-22T21:41:23.395Z,12.40
2018-02-22T21:43:49.188Z,12.40
2018-02-22T21:46:15.258Z,10.10
2018-02-22T21:48:41.518Z,9.85
2018-02-22T21:51:07.759Z,10.52
2018-02-22T21:53:33.566Z,11.10
2018-02-22T21:55:59.415Z,13.00
2018-02-22T21:58:25.454Z,14.30
2018-02-22T22:00:51.492Z,11.10
2018-02-22T22:03:17.736Z,11.30
2018-02-22T22:05:43.995Z,11.57
2018-02-22T22:08:10.002Z,12.93
2018-02-22T22:10:36.164Z,12.50
2018-02-22T22:13:02.091Z,14.65
2018-02-22T22:15:28.107Z,11.40
2018-02-22T22:17:54.539Z,13.27
2018-02-22T22:20:20.552Z,11.55
2018-02-22T22:22:47.476Z,11.05
2018-02-22T22:25:13.321Z,18.05
2018-02-22T22:27:39.472Z,13.90
2018-02-22T22:30:05.557Z,16.80
2018-02-22T22:32:31.988Z,10.80
2018-02-22T22:34:58.057Z,11.90
2018-02-22T22:37:24.391Z,11.95
2018-02-22T22:39:50.187Z,15.15
2018-02-22T22:42:16.483Z,12.43
2018-02-22T22:44:42.291Z,12.25
2018-02-22T22:47:08.282Z,16.27
2018-02-22T22:49:34.063Z,13.48
2018-02-22T22:51:59.872Z,12.93
2018-02-22T22:54:25.662Z,13.27
2018-02-22T22:56:51.480Z,13.90
2018-02-22T22:59:17.399Z,14.33
2018-02-22T23:01:43.212Z,14.67
2018-02-22T23:04:09.115Z,11.87
2018-02-22T23:06:34.898Z,13.37
2018-02-22T23:09:00.693Z,10.40
2018-02-22T23:11:26.477Z,14.80
2018-02-22T23:13:52.270Z,18.30
2018-02-22T23:16:18.979Z,13.10
2018-02-22T23:18:44.787Z,101.60
2018-02-22T23:21:10.815Z,356.23
2018-02-22T23:23:36.594Z,79.28
2018-02-22T23:26:02.552Z,60.37
2018-02-22T23:28:28.524Z,38.77
2018-02-22T23:30:54.458Z,22.17
2018-02-22T23:33:21.926Z,21.15
2018-02-22T23:35:47.849Z,16.65
2018-02-22T23:38:13.667Z,14.07
2018-02-22T23:40:44.822Z,12.57
2018-02-22T23:43:10.628Z,11.82
2018-02-22T23:45:36.549Z,8.53
2018-02-22T23:48:02.687Z,13.17
2018-02-22T23:50:28.612Z,10.73
2018-02-22T23:52:54.438Z,17.57
2018-02-22T23:55:20.635Z,12.57
2018-02-22T23:57:46.415Z,11.55
